Time;durP1;ratioP1;P1;durP2;ratioP2;P2;SDS_P1;SDS_P2;PMS_P1;PMS_P2;Temp;Humidity;BMP_temperature;BMP_pressure;BME280_temperature;BME280_humidity;BME280_pressure;Samples;Min_cycle;Max_cycle;Signal;HPM_P1;HPM_P2
2023/05/20 00:00:30;;;;;;;0.10;0.10;;;15.40;99.90;;;;;;5071893;28;20187;-83
2023/05/20 00:02:56;;;;;;;0.10;0.10;;;15.40;99.90;;;;;;5073572;28;20215;-83
2023/05/20 00:05:22;;;;;;;0.10;0.10;;;15.40;99.90;;;;;;5072812;28;20578;-81
2023/05/20 00:07:47;;;;;;;0.20;0.20;;;15.40;99.90;;;;;;5075246;28;20187;-81
2023/05/20 00:10:13;;;;;;;0.10;0.10;;;15.40;99.90;;;;;;5074841;28;20220;-81
2023/05/20 00:12:38;;;;;;;0.10;0.10;;;15.40;99.90;;;;;;5076088;28;20271;-81
2023/05/20 00:15:05;;;;;;;0.10;0.10;;;15.40;99.90;;;;;;5074016;28;20196;-83
2023/05/20 00:17:30;;;;;;;0.10;0.10;;;15.40;99.90;;;;;;5078044;28;20185;-81
2023/05/20 00:19:56;;;;;;;0.10;0.10;;;15.40;99.90;;;;;;5077319;28;20198;-82
2023/05/20 00:22:21;;;;;;;0.10;0.10;;;15.40;99.90;;;;;;5074536;28;20226;-82
2023/05/20 00:24:47;;;;;;;0.10;0.10;;;15.40;99.90;;;;;;5072671;28;20608;-81
2023/05/20 00:27:13;;;;;;;0.10;0.10;;;15.40;99.90;;;;;;5076951;28;20185;-80
2023/05/20 00:29:38;;;;;;;0.10;0.10;;;15.40;99.90;;;;;;5077897;28;20192;-81
2023/05/20 00:32:04;;;;;;;0.10;0.10;;;15.30;99.90;;;;;;5074857;28;20195;-81
2023/05/20 00:34:29;;;;;;;0.10;0.10;;;15.30;99.90;;;;;;5076561;28;21205;-81
2023/05/20 00:36:55;;;;;;;0.33;0.33;;;15.30;99.90;;;;;;5078120;28;20191;-81
2023/05/20 00:39:20;;;;;;;0.10;0.10;;;15.30;99.90;;;;;;5076421;28;20192;-81
2023/05/20 00:41:46;;;;;;;0.03;0.03;;;15.30;99.90;;;;;;5076770;28;20228;-81
2023/05/20 00:44:11;;;;;;;0.10;0.10;;;15.30;99.90;;;;;;5077354;28;21074;-80
2023/05/20 00:46:37;;;;;;;0.10;0.10;;;15.30;99.90;;;;;;5079179;28;20176;-80
2023/05/20 00:49:03;;;;;;;0.10;0.10;;;15.30;99.90;;;;;;5077587;28;20248;-81
2023/05/20 00:51:29;;;;;;;0.10;0.10;;;15.30;99.90;;;;;;5075010;28;20207;-81
2023/05/20 00:53:55;;;;;;;0.10;0.10;;;15.30;99.90;;;;;;5077804;28;20239;-81
2023/05/20 00:56:22;;;;;;;0.10;0.10;;;15.20;99.90;;;;;;5077869;28;20611;-81
2023/05/20 00:58:48;;;;;;;0.10;0.10;;;15.30;99.90;;;;;;5078644;28;20189;-81
2023/05/20 01:01:14;;;;;;;0.10;0.10;;;15.30;99.90;;;;;;5075538;28;20216;-80
2023/05/20 01:03:39;;;;;;;0.10;0.10;;;15.30;99.90;;;;;;5076940;28;20203;-81
2023/05/20 01:06:05;;;;;;;0.50;0.50;;;15.20;99.90;;;;;;5075914;28;20189;-81
2023/05/20 01:08:31;;;;;;;0.10;0.10;;;15.20;99.90;;;;;;5078079;28;20877;-81
2023/05/20 01:11:07;;;;;;;0.10;0.10;;;15.30;99.90;;;;;;5077729;28;20315;-80
2023/05/20 01:13:40;;;;;;;0.10;0.10;;;15.10;99.90;;;;;;5079299;28;20200;-81
2023/05/20 01:16:07;;;;;;;0.10;0.10;;;15.00;99.90;;;;;;5076782;28;20180;-80
2023/05/20 01:18:33;;;;;;;0.10;0.10;;;14.90;99.90;;;;;;5075384;28;20603;-81
2023/05/20 01:21:02;;;;;;;0.10;0.10;;;14.80;99.90;;;;;;5074775;28;20189;-81
2023/05/20 01:23:53;;;;;;;0.10;0.10;;;14.80;99.90;;;;;;5076017;28;20192;-81
2023/05/20 01:26:20;;;;;;;0.10;0.10;;;14.70;99.90;;;;;;5071632;28;20219;-80
2023/05/20 01:28:46;;;;;;;0.10;0.10;;;14.60;99.90;;;;;;5076598;28;20189;-80
2023/05/20 01:31:19;;;;;;;0.10;0.10;;;14.50;99.90;;;;;;5076511;28;20183;-81
2023/05/20 01:33:47;;;;;;;0.10;0.10;;;14.50;99.90;;;;;;5082485;28;20188;-80
2023/05/20 01:36:13;;;;;;;0.20;0.20;;;14.40;99.90;;;;;;5078886;28;20191;-81
2023/05/20 01:38:40;;;;;;;0.10;0.10;;;14.50;99.90;;;;;;5077634;28;20192;-81
2023/05/20 01:41:06;;;;;;;0.10;0.10;;;14.40;99.90;;;;;;5077778;28;20196;-81
2023/05/20 01:43:32;;;;;;;0.10;0.10;;;14.30;99.90;;;;;;5075930;28;20646;-81
2023/05/20 01:45:57;;;;;;;0.10;0.10;;;14.30;99.90;;;;;;5076054;28;20241;-81
2023/05/20 01:48:23;;;;;;;0.10;0.10;;;14.20;99.90;;;;;;5075180;28;20208;-81
2023/05/20 01:50:48;;;;;;;0.10;0.10;;;14.20;99.90;;;;;;5079231;28;20184;-80
2023/05/20 01:53:14;;;;;;;0.10;0.10;;;14.10;99.90;;;;;;5074881;28;20196;-80
2023/05/20 01:55:40;;;;;;;0.10;0.10;;;14.10;99.90;;;;;;5075673;28;20622;-81
2023/05/20 01:58:05;;;;;;;0.10;0.10;;;14.00;99.90;;;;;;5077227;28;20216;-81
2023/05/20 02:00:32;;;;;;;0.10;0.10;;;14.00;99.90;;;;;;5076414;28;20193;-81
2023/05/20 02:02:58;;;;;;;0.10;0.10;;;14.00;99.90;;;;;;5074527;28;20214;-81
2023/05/20 02:05:23;;;;;;;0.10;0.10;;;13.90;99.90;;;;;;5073966;28;20601;-80
2023/05/20 02:07:49;;;;;;;0.10;0.10;;;13.90;99.90;;;;;;5078341;28;20177;-81
2023/05/20 02:10:15;;;;;;;0.10;0.10;;;13.90;99.90;;;;;;5077712;28;20526;-81
2023/05/20 02:12:41;;;;;;;0.10;0.10;;;13.80;99.90;;;;;;5077951;28;20196;-80
2023/05/20 02:15:07;;;;;;;0.10;0.10;;;13.80;99.90;;;;;;5075929;28;20210;-81
2023/05/20 02:17:32;;;;;;;0.10;0.10;;;13.70;99.90;;;;;;5074194;28;20259;-81
2023/05/20 02:19:58;;;;;;;0.10;0.10;;;13.70;99.90;;;;;;5078488;28;20192;-81
2023/05/20 02:22:23;;;;;;;0.10;0.10;;;13.60;99.90;;;;;;5077595;28;20315;-81
2023/05/20 02:24:49;;;;;;;0.10;0.10;;;13.60;99.90;;;;;;5074835;28;20192;-81
2023/05/20 02:27:15;;;;;;;0.10;0.10;;;13.60;99.90;;;;;;5076088;28;20226;-81
2023/05/20 02:29:42;;;;;;;0.10;0.10;;;13.60;99.90;;;;;;5075097;28;20315;-81
2023/05/20 02:32:08;;;;;;;0.10;0.10;;;13.70;99.90;;;;;;5071840;28;20188;-80
2023/05/20 02:34:33;;;;;;;0.10;0.10;;;13.60;99.90;;;;;;5075808;28;20222;-81
2023/05/20 02:36:59;;;;;;;0.10;0.10;;;13.60;99.90;;;;;;5076528;28;20181;-80
2023/05/20 02:39:24;;;;;;;2.07;2.00;;;13.60;99.90;;;;;;5078014;28;20298;-80
2023/05/20 02:41:50;;;;;;;0.10;0.10;;;13.60;99.90;;;;;;5075431;28;20203;-81
2023/05/20 02:44:15;;;;;;;0.10;0.10;;;13.60;99.90;;;;;;5073896;28;20221;-81
2023/05/20 02:46:41;;;;;;;0.10;0.10;;;13.60;99.90;;;;;;5073635;28;20200;-81
2023/05/20 02:49:06;;;;;;;0.10;0.10;;;13.60;99.90;;;;;;5075726;28;20772;-81
2023/05/20 02:51:32;;;;;;;0.10;0.10;;;13.50;99.90;;;;;;5075005;28;20194;-81
2023/05/20 02:53:57;;;;;;;0.10;0.10;;;13.50;99.90;;;;;;5076323;28;20247;-81
2023/05/20 02:56:23;;;;;;;0.10;0.10;;;13.40;99.90;;;;;;5077167;28;20585;-81
2023/05/20 02:58:49;;;;;;;0.10;0.10;;;13.40;99.90;;;;;;5076055;28;20303;-81
2023/05/20 03:01:15;;;;;;;0.10;0.10;;;13.50;99.90;;;;;;5075786;28;20783;-81
2023/05/20 03:03:41;;;;;;;0.10;0.10;;;13.50;99.90;;;;;;5073643;28;20213;-80
2023/05/20 03:06:07;;;;;;;0.10;0.10;;;13.50;99.90;;;;;;5073517;28;20227;-80
2023/05/20 03:08:33;;;;;;;0.10;0.10;;;13.50;99.90;;;;;;5076136;28;20195;-81
2023/05/20 03:10:59;;;;;;;0.10;0.10;;;13.50;99.90;;;;;;5078658;28;20184;-81
2023/05/20 03:13:24;;;;;;;0.10;0.10;;;13.50;99.90;;;;;;5075712;28;20186;-81
2023/05/20 03:15:50;;;;;;;0.10;0.10;;;13.50;99.90;;;;;;5074608;28;20209;-81
2023/05/20 03:18:16;;;;;;;0.10;0.10;;;13.40;99.90;;;;;;5073914;28;20187;-81
2023/05/20 03:20:41;;;;;;;0.10;0.10;;;13.40;99.90;;;;;;5074813;28;20796;-81
2023/05/20 03:23:08;;;;;;;0.10;0.10;;;13.40;99.90;;;;;;5074283;28;20204;-81
2023/05/20 03:25:35;;;;;;;0.10;0.10;;;13.40;99.90;;;;;;5092162;28;20209;-80
2023/05/20 03:28:00;;;;;;;0.10;0.10;;;13.40;99.90;;;;;;5075410;28;20181;-81
2023/05/20 03:30:26;;;;;;;0.10;0.10;;;13.40;99.90;;;;;;5073242;28;20193;-80
2023/05/20 03:32:53;;;;;;;0.10;0.10;;;13.30;99.90;;;;;;5073025;28;20219;-81
2023/05/20 03:35:18;;;;;;;0.10;0.10;;;13.40;99.90;;;;;;5075100;28;20238;-81
2023/05/20 03:37:44;;;;;;;0.10;0.10;;;13.40;99.90;;;;;;5077709;28;20265;-80
2023/05/20 03:40:10;;;;;;;0.10;0.10;;;13.40;99.90;;;;;;5074211;28;20230;-80
2023/05/20 03:42:37;;;;;;;0.10;0.10;;;13.40;99.90;;;;;;5073905;28;20215;-80
2023/05/20 03:45:02;;;;;;;0.40;0.40;;;13.30;99.90;;;;;;5073053;28;20223;-81
2023/05/20 03:47:28;;;;;;;0.10;0.10;;;13.40;99.90;;;;;;5073163;28;20215;-81
2023/05/20 03:49:54;;;;;;;0.10;0.10;;;13.30;99.90;;;;;;5077550;28;20210;-81
2023/05/20 03:52:19;;;;;;;0.10;0.10;;;13.30;99.90;;;;;;5074447;28;20188;-80
2023/05/20 03:54:45;;;;;;;0.10;0.10;;;13.30;99.90;;;;;;5075732;28;20204;-80
2023/05/20 03:57:11;;;;;;;0.10;0.10;;;13.30;99.90;;;;;;5073592;28;20566;-80
2023/05/20 03:59:37;;;;;;;0.10;0.10;;;13.30;99.90;;;;;;5073229;28;21019;-80
2023/05/20 04:02:03;;;;;;;0.10;0.10;;;13.30;99.90;;;;;;5075168;28;20197;-81
2023/05/20 04:04:29;;;;;;;0.70;0.70;;;13.40;99.90;;;;;;5075373;28;20219;-81
2023/05/20 04:06:59;;;;;;;0.10;0.10;;;13.30;99.90;;;;;;5073910;28;20183;-81
2023/05/20 04:09:25;;;;;;;0.10;0.10;;;13.40;99.90;;;;;;5058157;28;20174;-81
2023/05/20 04:11:50;;;;;;;0.10;0.10;;;13.30;99.90;;;;;;5076732;28;20196;-80
2023/05/20 04:14:16;;;;;;;0.10;0.10;;;13.30;99.90;;;;;;5074600;28;20554;-81
2023/05/20 04:16:43;;;;;;;0.10;0.10;;;13.40;99.90;;;;;;5073373;28;20251;-81
2023/05/20 04:19:09;;;;;;;0.10;0.10;;;13.40;99.90;;;;;;5075052;28;20176;-81
2023/05/20 04:21:35;;;;;;;0.10;0.10;;;13.30;99.90;;;;;;5074521;28;20219;-80
2023/05/20 04:24:01;;;;;;;0.10;0.10;;;13.30;99.90;;;;;;5075731;28;20640;-80
2023/05/20 04:26:26;;;;;;;0.10;0.10;;;13.30;99.90;;;;;;5076343;28;20655;-81
2023/05/20 04:28:52;;;;;;;0.10;0.10;;;13.30;99.90;;;;;;5069649;28;20557;-81
2023/05/20 04:31:17;;;;;;;0.10;0.10;;;13.30;99.90;;;;;;5074211;28;20176;-81
2023/05/20 04:33:43;;;;;;;0.10;0.10;;;13.30;99.90;;;;;;5072520;28;20658;-81
2023/05/20 04:36:10;;;;;;;0.10;0.10;;;13.30;99.90;;;;;;5075927;28;20681;-81
2023/05/20 04:38:37;;;;;;;0.10;0.10;;;13.30;99.90;;;;;;5075396;28;20236;-81
2023/05/20 04:41:03;;;;;;;0.10;0.10;;;13.30;99.90;;;;;;5075827;28;20196;-81
2023/05/20 04:43:29;;;;;;;0.10;0.10;;;13.30;99.90;;;;;;5073326;28;20184;-82
2023/05/20 04:45:55;;;;;;;0.10;0.10;;;13.30;99.90;;;;;;5073523;28;20302;-82
2023/05/20 04:48:21;;;;;;;0.10;0.10;;;13.30;99.90;;;;;;5074808;28;20188;-82
2023/05/20 04:50:48;;;;;;;0.10;0.10;;;13.40;99.90;;;;;;5075216;28;20192;-81
2023/05/20 04:53:17;;;;;;;0.23;0.23;;;13.40;99.90;;;;;;5074853;28;20190;-81
2023/05/20 04:55:44;;;;;;;0.10;0.10;;;13.40;99.90;;;;;;5076358;28;20215;-81
2023/05/20 04:58:14;;;;;;;0.10;0.10;;;13.40;99.90;;;;;;5079447;28;20632;-81
2023/05/20 05:00:50;;;;;;;0.10;0.10;;;13.50;99.90;;;;;;5080557;28;20188;-81
2023/05/20 05:03:16;;;;;;;0.67;0.67;;;13.50;99.90;;;;;;5094252;28;20270;-81
2023/05/20 05:05:42;;;;;;;0.10;0.10;;;13.50;99.90;;;;;;5079565;28;20193;-81
2023/05/20 05:08:08;;;;;;;0.10;0.10;;;13.50;99.90;;;;;;5076444;28;20192;-81
2023/05/20 05:10:34;;;;;;;0.10;0.10;;;13.60;99.90;;;;;;5074720;28;20347;-81
2023/05/20 05:13:00;;;;;;;0.10;0.10;;;13.70;99.90;;;;;;5073773;28;20241;-81
2023/05/20 05:15:26;;;;;;;0.10;0.10;;;13.70;99.90;;;;;;5074689;28;20211;-81
2023/05/20 05:17:52;;;;;;;0.10;0.10;;;13.70;99.90;;;;;;5072581;28;20188;-82
2023/05/20 05:20:18;;;;;;;0.10;0.10;;;13.90;99.90;;;;;;5055888;28;20286;-82
2023/05/20 05:22:44;;;;;;;0.10;0.10;;;13.80;99.90;;;;;;5071358;28;20340;-82
2023/05/20 05:25:10;;;;;;;0.10;0.10;;;13.90;99.90;;;;;;5072520;28;20295;-82
2023/05/20 05:27:36;;;;;;;0.10;0.10;;;14.00;99.90;;;;;;5068784;28;20191;-82
2023/05/20 05:30:03;;;;;;;0.10;0.10;;;14.00;99.90;;;;;;5068389;28;20273;-82
2023/05/20 05:32:29;;;;;;;0.07;0.07;;;14.00;99.90;;;;;;5070861;28;20191;-82
2023/05/20 05:34:55;;;;;;;0.10;0.10;;;14.10;99.90;;;;;;5070242;28;20215;-82
2023/05/20 05:37:21;;;;;;;0.10;0.10;;;14.10;99.90;;;;;;5073807;28;20324;-82
2023/05/20 05:39:47;;;;;;;0.10;0.10;;;14.10;99.90;;;;;;5072432;28;20194;-81
2023/05/20 05:42:13;;;;;;;0.10;0.10;;;14.10;99.90;;;;;;5073929;28;20328;-82
2023/05/20 05:44:38;;;;;;;0.10;0.10;;;14.10;99.90;;;;;;5075693;28;20312;-81
2023/05/20 05:47:05;;;;;;;0.10;0.10;;;14.20;99.90;;;;;;5074515;28;20672;-82
2023/05/20 05:49:31;;;;;;;0.10;0.10;;;14.10;99.90;;;;;;5075242;28;20178;-82
2023/05/20 05:51:56;;;;;;;0.10;0.10;;;14.30;99.90;;;;;;5073310;28;20192;-82
2023/05/20 05:54:22;;;;;;;0.10;0.10;;;14.40;99.90;;;;;;5075430;28;20206;-83
2023/05/20 05:56:47;;;;;;;0.10;0.10;;;14.50;99.90;;;;;;5073091;28;20283;-81
2023/05/20 05:59:15;;;;;;;0.10;0.10;;;14.50;99.90;;;;;;5073992;28;20276;-83
2023/05/20 06:01:40;;;;;;;0.10;0.10;;;14.70;99.90;;;;;;5072233;28;20314;-82
2023/05/20 06:04:06;;;;;;;0.10;0.10;;;14.70;99.90;;;;;;5081271;28;20289;-83
2023/05/20 06:06:32;;;;;;;0.10;0.10;;;14.80;99.90;;;;;;5080229;28;20184;-83
2023/05/20 06:08:58;;;;;;;0.10;0.10;;;14.90;99.90;;;;;;5081420;28;20597;-82
2023/05/20 06:11:23;;;;;;;0.10;0.10;;;14.90;99.90;;;;;;5077535;28;20248;-82
2023/05/20 06:13:49;;;;;;;0.10;0.10;;;14.70;99.90;;;;;;5075099;28;20196;-81
2023/05/20 06:16:15;;;;;;;0.10;0.10;;;15.00;99.90;;;;;;5073405;28;20178;-82
2023/05/20 06:18:41;;;;;;;0.10;0.10;;;15.10;99.90;;;;;;5071957;28;20223;-82
2023/05/20 06:21:07;;;;;;;0.10;0.10;;;15.50;99.90;;;;;;5071980;28;20187;-81
2023/05/20 06:23:33;;;;;;;0.10;0.10;;;15.60;99.90;;;;;;5076595;28;20215;-82
2023/05/20 06:25:59;;;;;;;0.10;0.10;;;15.70;99.90;;;;;;5073904;28;20212;-81
2023/05/20 06:28:25;;;;;;;0.10;0.10;;;15.90;99.90;;;;;;5072732;28;20188;-82
2023/05/20 06:30:53;;;;;;;0.10;0.10;;;15.90;99.90;;;;;;5070548;28;20300;-82
2023/05/20 06:33:19;;;;;;;0.10;0.10;;;16.00;99.90;;;;;;5071839;28;20610;-81
2023/05/20 06:35:44;;;;;;;0.10;0.10;;;16.10;99.90;;;;;;5074014;28;20215;-82
2023/05/20 06:38:10;;;;;;;0.10;0.10;;;16.50;99.90;;;;;;5073805;28;20202;-81
2023/05/20 06:40:35;;;;;;;0.10;0.10;;;16.60;99.90;;;;;;5073000;28;20252;-82
2023/05/20 06:43:01;;;;;;;0.10;0.10;;;16.60;99.90;;;;;;5070120;28;20212;-81
2023/05/20 06:45:26;;;;;;;0.10;0.10;;;16.70;99.90;;;;;;5071317;28;20205;-84
2023/05/20 06:47:53;;;;;;;0.10;0.10;;;16.90;99.90;;;;;;5067116;28;20178;-82
2023/05/20 06:50:18;;;;;;;0.10;0.10;;;16.90;99.90;;;;;;5070288;28;20185;-83
2023/05/20 06:52:44;;;;;;;0.10;0.10;;;17.50;99.90;;;;;;5074284;28;20253;-82
2023/05/20 06:55:10;;;;;;;0.10;0.10;;;17.50;99.90;;;;;;5070192;28;20211;-82
2023/05/20 06:57:35;;;;;;;0.10;0.10;;;17.20;99.90;;;;;;5070749;28;20716;-82
2023/05/20 07:00:02;;;;;;;0.10;0.10;;;17.30;99.90;;;;;;5071863;28;20211;-81
2023/05/20 07:02:28;;;;;;;0.10;0.10;;;17.50;99.90;;;;;;5073906;28;20560;-81
2023/05/20 07:04:53;;;;;;;0.10;0.10;;;17.80;99.90;;;;;;5072511;28;20215;-82
2023/05/20 07:07:19;;;;;;;0.10;0.10;;;17.50;99.90;;;;;;5075963;28;20187;-83
2023/05/20 07:09:44;;;;;;;0.10;0.10;;;17.60;99.90;;;;;;5072601;28;20191;-82
2023/05/20 07:12:10;;;;;;;0.10;0.10;;;17.80;99.90;;;;;;5072606;28;20237;-83
2023/05/20 07:14:35;;;;;;;2.50;0.93;;;17.70;99.90;;;;;;5076317;28;20201;-82
2023/05/20 07:17:01;;;;;;;0.10;0.10;;;17.60;99.90;;;;;;5072730;28;20191;-82
2023/05/20 07:19:26;;;;;;;0.10;0.10;;;17.70;99.90;;;;;;5073823;28;20499;-83
2023/05/20 07:21:52;;;;;;;0.10;0.10;;;17.90;99.90;;;;;;5071820;28;20686;-83
2023/05/20 07:24:17;;;;;;;0.10;0.10;;;17.80;99.90;;;;;;5072690;28;20210;-82
2023/05/20 07:26:43;;;;;;;0.10;0.10;;;17.50;99.90;;;;;;5072220;28;20863;-82
2023/05/20 07:29:09;;;;;;;0.10;0.10;;;17.40;99.90;;;;;;5071599;28;21294;-82
2023/05/20 07:31:35;;;;;;;0.10;0.10;;;17.70;99.90;;;;;;5072765;28;20180;-82
2023/05/20 07:34:01;;;;;;;0.10;0.10;;;17.60;99.90;;;;;;5071931;28;20756;-82
2023/05/20 07:36:27;;;;;;;0.10;0.10;;;17.50;99.90;;;;;;5071419;28;20189;-82
2023/05/20 07:38:53;;;;;;;0.10;0.10;;;17.60;99.90;;;;;;5077815;28;20256;-83
2023/05/20 07:41:19;;;;;;;0.10;0.10;;;17.20;99.90;;;;;;5080726;28;20342;-82
2023/05/20 07:43:45;;;;;;;0.10;0.10;;;17.10;99.90;;;;;;5079544;28;20271;-80
2023/05/20 07:46:10;;;;;;;0.10;0.10;;;17.00;99.90;;;;;;5080744;28;20176;-82
2023/05/20 07:48:36;;;;;;;0.10;0.10;;;17.00;99.90;;;;;;5074806;28;20189;-81
2023/05/20 07:51:01;;;;;;;0.10;0.10;;;17.20;99.90;;;;;;5071913;28;20192;-82
2023/05/20 07:53:27;;;;;;;0.10;0.10;;;17.10;99.90;;;;;;5074677;28;20217;-84
2023/05/20 07:55:52;;;;;;;0.30;0.30;;;17.30;99.90;;;;;;5070662;28;20200;-84
2023/05/20 07:58:18;;;;;;;0.60;0.60;;;17.30;99.90;;;;;;5067743;28;20223;-83
2023/05/20 08:00:43;;;;;;;0.10;0.10;;;17.40;99.90;;;;;;5068810;28;20646;-82
2023/05/20 08:03:10;;;;;;;0.10;0.10;;;17.20;99.90;;;;;;5066372;28;20235;-83
2023/05/20 08:05:37;;;;;;;0.10;0.10;;;17.10;99.90;;;;;;5067906;28;20239;-83
2023/05/20 08:08:03;;;;;;;0.10;0.10;;;16.90;99.90;;;;;;5065509;28;20191;-82
2023/05/20 08:10:28;;;;;;;0.10;0.10;;;17.20;99.90;;;;;;5071364;28;20188;-83
2023/05/20 08:12:54;;;;;;;0.10;0.10;;;17.10;99.90;;;;;;5074176;28;20189;-82
2023/05/20 08:15:20;;;;;;;0.10;0.10;;;17.20;99.90;;;;;;5077495;28;20213;-83
2023/05/20 08:17:45;;;;;;;0.10;0.10;;;17.10;99.90;;;;;;5080214;28;21209;-83
2023/05/20 08:20:11;;;;;;;0.10;0.10;;;17.50;99.90;;;;;;5077720;28;20570;-82
2023/05/20 08:22:37;;;;;;;0.40;0.40;;;17.60;99.90;;;;;;5076068;28;20211;-82
2023/05/20 08:25:06;;;;;;;0.10;0.10;;;17.60;99.90;;;;;;5073430;28;20209;-82
2023/05/20 08:27:32;;;;;;;0.10;0.10;;;17.70;99.90;;;;;;5070835;28;20189;-82
2023/05/20 08:29:57;;;;;;;0.10;0.10;;;17.70;99.90;;;;;;5077503;28;20191;-83
2023/05/20 08:32:23;;;;;;;0.10;0.10;;;18.00;99.90;;;;;;5067777;28;20191;-82
2023/05/20 08:34:48;;;;;;;0.10;0.10;;;17.90;99.90;;;;;;5073237;28;20320;-82
2023/05/20 08:37:15;;;;;;;0.50;0.50;;;17.80;99.90;;;;;;5069247;28;20698;-81
2023/05/20 08:39:40;;;;;;;0.10;0.10;;;17.90;99.90;;;;;;5071194;28;20180;-81
2023/05/20 08:42:08;;;;;;;0.10;0.10;;;18.10;99.90;;;;;;5072810;28;20205;-81
2023/05/20 08:44:34;;;;;;;0.50;0.50;;;18.80;99.90;;;;;;5072639;28;20674;-81
2023/05/20 08:47:02;;;;;;;0.10;0.10;;;18.70;99.90;;;;;;5074866;28;20204;-82
2023/05/20 08:49:28;;;;;;;0.10;0.10;;;18.60;99.90;;;;;;5073508;28;20177;-81
2023/05/20 08:51:54;;;;;;;0.10;0.10;;;18.60;99.90;;;;;;5078660;28;20570;-81
2023/05/20 08:54:22;;;;;;;0.10;0.10;;;18.90;99.90;;;;;;5078415;28;20236;-81
2023/05/20 08:56:48;;;;;;;0.10;0.10;;;18.90;99.90;;;;;;5077073;28;20198;-81
2023/05/20 08:59:14;;;;;;;0.10;0.10;;;19.10;99.90;;;;;;5075628;28;20241;-82
2023/05/20 09:01:43;;;;;;;0.10;0.10;;;19.10;99.90;;;;;;5076515;28;20780;-82
2023/05/20 09:04:09;;;;;;;0.10;0.10;;;19.70;99.90;;;;;;5074282;28;20586;-81
2023/05/20 09:06:45;;;;;;;0.30;0.30;;;19.00;99.90;;;;;;5075648;28;20238;-82
2023/05/20 09:09:14;;;;;;;0.47;0.47;;;18.90;99.90;;;;;;5076525;28;20275;-82
2023/05/20 09:11:41;;;;;;;0.10;0.10;;;19.40;99.90;;;;;;5074954;28;20196;-82
2023/05/20 09:14:07;;;;;;;0.10;0.10;;;20.00;99.90;;;;;;5074965;28;20671;-82
2023/05/20 09:16:34;;;;;;;0.17;0.17;;;19.30;99.90;;;;;;5075875;28;20275;-83
2023/05/20 09:19:00;;;;;;;0.10;0.10;;;19.50;99.90;;;;;;5071269;28;20224;-83
2023/05/20 09:21:29;;;;;;;0.10;0.10;;;19.70;99.90;;;;;;5068469;28;20236;-84
2023/05/20 09:23:58;;;;;;;0.10;0.10;;;19.50;99.90;;;;;;5070974;28;20202;-85
2023/05/20 09:26:30;;;;;;;0.10;0.10;;;19.90;99.90;;;;;;5070139;28;20193;-82
2023/05/20 09:28:56;;;;;;;0.10;0.10;;;20.20;99.90;;;;;;5071566;28;20185;-81
2023/05/20 09:31:31;;;;;;;0.10;0.10;;;20.10;99.90;;;;;;5069870;28;20181;-82
2023/05/20 09:33:57;;;;;;;0.10;0.10;;;19.80;99.90;;;;;;5073190;28;20219;-82
2023/05/20 09:36:24;;;;;;;0.10;0.10;;;19.70;99.90;;;;;;5069143;28;20215;-82
2023/05/20 09:38:58;;;;;;;0.10;0.10;;;19.80;99.90;;;;;;5068508;28;20255;-82
2023/05/20 09:41:31;;;;;;;0.10;0.10;;;19.80;99.90;;;;;;5072361;28;20189;-82
2023/05/20 09:43:57;;;;;;;0.10;0.10;;;19.80;99.90;;;;;;5073753;28;20181;-82
2023/05/20 09:46:23;;;;;;;0.10;0.10;;;19.60;99.90;;;;;;5078268;28;20215;-81
2023/05/20 09:48:49;;;;;;;0.10;0.10;;;20.00;99.90;;;;;;5078077;28;20227;-81
2023/05/20 09:51:15;;;;;;;0.20;0.20;;;20.60;99.90;;;;;;5074985;28;20184;-82
2023/05/20 09:53:41;;;;;;;0.10;0.10;;;19.90;99.90;;;;;;5072019;28;20192;-82
2023/05/20 09:56:07;;;;;;;0.10;0.10;;;19.80;99.90;;;;;;5071772;28;20272;-82
2023/05/20 09:58:35;;;;;;;0.10;0.10;;;20.40;99.90;;;;;;5071481;28;20284;-82
2023/05/20 10:01:00;;;;;;;0.17;0.17;;;21.10;99.90;;;;;;5073304;28;20196;-82
2023/05/20 10:03:27;;;;;;;0.40;0.40;;;20.70;99.90;;;;;;5072452;28;20212;-82
2023/05/20 10:06:08;;;;;;;0.10;0.10;;;20.50;99.90;;;;;;5070833;28;20425;-82
2023/05/20 10:09:12;;;;;;;0.10;0.10;;;20.90;99.90;;;;;;5069338;28;20199;-81
2023/05/20 10:11:45;;;;;;;0.10;0.10;;;21.00;99.90;;;;;;5071523;28;20200;-82
2023/05/20 10:14:28;;;;;;;0.10;0.10;;;20.80;99.90;;;;;;5071036;28;20269;-82
2023/05/20 10:17:07;;;;;;;0.10;0.10;;;19.70;99.90;;;;;;5072532;28;20188;-82
2023/05/20 10:19:33;;;;;;;0.10;0.10;;;19.60;99.90;;;;;;5076375;28;20196;-83
2023/05/20 10:22:10;;;;;;;0.10;0.10;;;19.40;99.90;;;;;;5075667;28;20252;-82
2023/05/20 10:24:41;;;;;;;0.10;0.10;;;19.40;99.90;;;;;;5075941;28;20204;-83
2023/05/20 10:27:09;;;;;;;0.10;0.10;;;19.50;99.90;;;;;;5078105;28;20184;-82
2023/05/20 10:29:42;;;;;;;0.10;0.10;;;19.50;99.90;;;;;;5075964;28;20184;-82
2023/05/20 10:32:07;;;;;;;0.67;0.67;;;19.50;99.90;;;;;;5074646;28;20184;-82
2023/05/20 10:34:48;;;;;;;0.10;0.10;;;19.70;99.90;;;;;;5073446;28;20300;-82
2023/05/20 10:37:29;;;;;;;17.63;15.93;;;19.60;99.90;;;;;;5073950;28;20183;-83
2023/05/20 10:40:12;;;;;;;0.10;0.10;;;19.90;99.90;;;;;;5073253;28;20196;-82
2023/05/20 10:42:38;;;;;;;0.10;0.10;;;19.80;99.90;;;;;;5074188;28;20541;-81
2023/05/20 10:45:05;;;;;;;0.10;0.10;;;19.60;99.90;;;;;;5071480;28;21002;-82
2023/05/20 10:47:31;;;;;;;0.10;0.10;;;19.60;99.90;;;;;;5071331;28;20662;-82
2023/05/20 10:49:57;;;;;;;0.10;0.10;;;19.40;99.90;;;;;;5072666;28;20237;-82
2023/05/20 10:52:24;;;;;;;0.10;0.10;;;19.80;99.90;;;;;;5068702;28;20204;-82
2023/05/20 10:54:53;;;;;;;0.10;0.10;;;19.50;99.90;;;;;;5070659;28;20204;-82
2023/05/20 10:57:18;;;;;;;0.10;0.10;;;19.90;99.90;;;;;;5071016;28;20219;-82
2023/05/20 10:59:46;;;;;;;0.10;0.10;;;20.40;99.90;;;;;;5066802;28;20228;-82
2023/05/20 11:02:15;;;;;;;0.10;0.10;;;20.50;99.90;;;;;;5068966;28;20248;-82
2023/05/20 11:04:43;;;;;;;0.10;0.10;;;20.60;99.90;;;;;;5071807;28;20736;-81
2023/05/20 11:07:08;;;;;;;0.10;0.10;;;20.40;99.90;;;;;;5070333;28;20177;-81
2023/05/20 11:09:34;;;;;;;0.10;0.10;;;20.30;99.90;;;;;;5071463;28;20242;-81
2023/05/20 11:12:01;;;;;;;0.87;0.40;;;20.20;99.90;;;;;;5069591;28;20188;-82
2023/05/20 11:14:30;;;;;;;0.10;0.10;;;20.00;99.90;;;;;;5075976;28;20214;-81
2023/05/20 11:16:59;;;;;;;0.10;0.10;;;20.20;99.90;;;;;;5074764;28;20180;-81
2023/05/20 11:19:25;;;;;;;0.10;0.10;;;20.20;99.90;;;;;;5071887;28;20239;-81
2023/05/20 11:21:51;;;;;;;0.10;0.10;;;20.50;99.90;;;;;;5071585;28;20212;-81
2023/05/20 11:24:25;;;;;;;0.10;0.10;;;20.10;99.90;;;;;;5068125;28;20227;-81
2023/05/20 11:26:52;;;;;;;0.10;0.10;;;20.40;99.90;;;;;;5067644;28;20188;-82
2023/05/20 11:29:18;;;;;;;0.10;0.10;;;20.20;99.90;;;;;;5066766;28;20662;-83
2023/05/20 11:31:45;;;;;;;0.10;0.10;;;20.90;99.90;;;;;;5066580;28;20339;-82
2023/05/20 11:34:11;;;;;;;0.10;0.10;;;21.20;99.90;;;;;;5067534;28;20196;-82
2023/05/20 11:36:41;;;;;;;0.10;0.10;;;21.00;99.90;;;;;;5065545;28;20195;-82
2023/05/20 11:39:10;;;;;;;0.20;0.20;;;21.40;99.90;;;;;;5071703;28;20275;-82
2023/05/20 11:41:36;;;;;;;0.10;0.10;;;21.10;99.90;;;;;;5071860;28;20197;-82
2023/05/20 11:44:01;;;;;;;0.10;0.10;;;20.90;99.90;;;;;;5071270;28;20207;-82
2023/05/20 11:46:27;;;;;;;0.10;0.10;;;21.00;99.90;;;;;;5071295;28;20549;-82
2023/05/20 11:48:53;;;;;;;0.60;0.60;;;21.10;99.90;;;;;;5074412;28;20227;-81
2023/05/20 11:51:26;;;;;;;0.10;0.10;;;20.70;99.90;;;;;;5074980;28;20185;-82
2023/05/20 11:53:51;;;;;;;0.10;0.10;;;20.40;99.90;;;;;;5072846;28;20238;-82
2023/05/20 11:56:17;;;;;;;0.10;0.10;;;20.40;99.90;;;;;;5075916;28;20176;-83
2023/05/20 11:58:43;;;;;;;0.10;0.10;;;20.90;99.90;;;;;;5077077;28;20192;-82
2023/05/20 12:01:09;;;;;;;0.17;0.17;;;21.00;99.90;;;;;;5082013;28;20179;-82
2023/05/20 12:03:35;;;;;;;0.10;0.10;;;21.20;99.90;;;;;;5080677;28;20208;-82
2023/05/20 12:06:02;;;;;;;0.10;0.10;;;21.10;99.90;;;;;;5080095;28;20211;-82
2023/05/20 12:08:27;;;;;;;0.10;0.10;;;21.50;99.90;;;;;;5078462;28;21167;-83
2023/05/20 12:10:53;;;;;;;0.10;0.10;;;21.30;99.90;;;;;;5079229;28;20249;-82
2023/05/20 12:13:19;;;;;;;0.10;0.10;;;21.60;99.90;;;;;;5077172;28;20196;-83
2023/05/20 12:15:44;;;;;;;0.10;0.10;;;21.40;99.90;;;;;;5078071;28;20288;-81
2023/05/20 12:18:10;;;;;;;0.10;0.10;;;21.30;99.90;;;;;;5076095;28;20303;-83
2023/05/20 12:20:36;;;;;;;0.10;0.10;;;21.20;99.90;;;;;;5072646;28;21197;-82
2023/05/20 12:23:02;;;;;;;0.10;0.10;;;21.10;99.90;;;;;;5076631;28;20280;-82
2023/05/20 12:25:27;;;;;;;0.10;0.10;;;21.50;99.90;;;;;;5072972;28;20208;-82
2023/05/20 12:27:54;;;;;;;0.10;0.10;;;22.00;99.90;;;;;;5076827;28;20398;-82
2023/05/20 12:30:21;;;;;;;0.10;0.10;;;21.80;99.90;;;;;;5073235;28;20196;-82
2023/05/20 12:32:51;;;;;;;1.03;1.03;;;22.00;99.90;;;;;;5073537;28;20639;-82
2023/05/20 12:35:23;;;;;;;0.10;0.10;;;21.70;99.90;;;;;;5073792;28;20219;-80
2023/05/20 12:37:48;;;;;;;0.73;0.73;;;21.20;99.90;;;;;;5071891;28;20197;-81
2023/05/20 12:40:14;;;;;;;0.10;0.10;;;22.00;99.90;;;;;;5073324;28;20720;-82
2023/05/20 12:42:40;;;;;;;0.10;0.10;;;21.60;99.90;;;;;;5076709;28;20209;-82
2023/05/20 12:45:07;;;;;;;0.10;0.10;;;21.60;99.90;;;;;;5073406;28;20560;-81